Terminal Aerodrome Forecast
Issued by NWS Indianapolis, IN

Home | Current Version | Previous Version | Text Only | Print | Product List | Glossary On
Versions: 1 2 3 4 5 6 7 8 9 10 11 12 13 14 15 16 17 18 19 20 21 22 23 24 25
000
FTUS43 KIND 221433 AAB
TAFIND
TAF AMD
KIND 221433Z 2215/2318 21007KT P6SM BKN030 BKN250
     FM221630 20008KT P6SM BKN040 BKN250
     FM222200 18011KT P6SM VCSH BKN050
     FM230100 17009KT P6SM VCTS OVC015CB
     FM230400 18008KT P6SM VCTS OVC008CB
     FM230600 19009KT P6SM SHRA VCTS OVC008CB
     FM230900 21008KT P6SM SHRA OVC008
     FM231200 22008KT P6SM SHRA OVC020=

USA.gov is the U.S. government's official web portal to all federal, state and local government web resources and services.